Time;durP1;ratioP1;P1;durP2;ratioP2;P2;SDS_P1;SDS_P2;PMS_P1;PMS_P2;Temp;Humidity;BMP_temperature;BMP_pressure;BME280_temperature;BME280_humidity;BME280_pressure;Samples;Min_cycle;Max_cycle;Signal;HPM_P1;HPM_P2
2021/03/14 00:00:58;;;;;;;13.32;7.03;;;;;;;14.93;67.84;101321.34;5048913;28;20128;-69
2021/03/14 00:03:27;;;;;;;22.23;11.23;;;;;;;14.96;67.57;101319.59;5049116;28;20086;-68
2021/03/14 00:05:55;;;;;;;16.48;7.30;;;;;;;14.97;67.12;101316.03;5048591;28;20048;-69
2021/03/14 00:08:25;;;;;;;10.70;6.60;;;;;;;14.98;67.14;101315.16;5049113;28;20049;-69
2021/03/14 00:10:54;;;;;;;15.88;8.02;;;;;;;14.98;67.02;101311.59;5048902;28;20132;-69
2021/03/14 00:13:24;;;;;;;32.90;17.27;;;;;;;15.03;67.07;101309.91;5049737;28;20045;-69
2021/03/14 00:15:52;;;;;;;34.67;15.50;;;;;;;15.06;66.90;101320.53;5048796;28;20094;-69
2021/03/14 00:18:20;;;;;;;33.72;17.10;;;;;;;15.07;66.88;101319.66;5049143;28;20041;-69
2021/03/14 00:20:47;;;;;;;26.27;14.48;;;;;;;15.07;67.00;101320.53;5048747;28;20036;-69
2021/03/14 00:23:14;;;;;;;24.02;11.52;;;;;;;15.09;66.97;101316.13;5050312;28;20058;-69
2021/03/14 00:25:41;;;;;;;31.67;16.05;;;;;;;15.10;67.04;101324.97;5053204;28;20121;-69
2021/03/14 00:28:08;;;;;;;20.23;11.25;;;;;;;15.07;67.22;101309.03;5052418;28;20489;-69
2021/03/14 00:30:36;;;;;;;12.68;8.43;;;;;;;15.08;67.31;101300.16;5052699;28;20045;-69
2021/03/14 00:33:04;;;;;;;12.25;7.25;;;;;;;15.05;67.38;101290.38;5052255;28;20052;-69
2021/03/14 00:35:31;;;;;;;11.73;7.07;;;;;;;15.01;67.29;101282.41;5052480;28;20162;-69
2021/03/14 00:37:58;;;;;;;10.65;6.30;;;;;;;14.98;67.29;101264.63;5051801;28;20033;-69
2021/03/14 00:40:27;;;;;;;14.50;7.03;;;;;;;14.96;67.44;101249.56;5052574;28;20044;-69
2021/03/14 00:42:56;;;;;;;10.80;6.00;;;;;;;14.93;67.37;101236.25;5052354;28;20044;-68
2021/03/14 00:45:22;;;;;;;14.63;7.55;;;;;;;14.88;67.42;101230.03;5052938;28;20047;-68
2021/03/14 00:47:51;;;;;;;29.63;14.52;;;;;;;14.88;67.57;101230.03;5052436;28;20124;-68
2021/03/14 00:50:18;;;;;;;14.45;7.57;;;;;;;14.88;67.72;101245.97;5043793;28;20379;-69
2021/03/14 00:52:46;;;;;;;27.23;12.93;;;;;;;14.79;68.09;101249.47;5052621;28;20189;-69
2021/03/14 00:55:13;;;;;;;24.50;11.88;;;;;;;14.81;67.93;101253.03;5051863;28;20128;-69
2021/03/14 00:57:40;;;;;;;13.90;7.93;;;;;;;14.82;67.81;101245.94;5052543;28;20037;-69
2021/03/14 01:00:08;;;;;;;13.95;6.93;;;;;;;14.80;67.91;101243.28;5051825;28;20086;-69
2021/03/14 01:02:36;;;;;;;14.25;9.75;;;;;;;14.69;68.33;101229.03;5051741;28;20037;-69
2021/03/14 01:05:05;;;;;;;12.98;6.93;;;;;;;14.53;69.21;101233.34;5050571;28;20083;-69
2021/03/14 01:07:31;;;;;;;13.93;7.40;;;;;;;14.42;69.51;101211.16;5051865;28;20037;-69
2021/03/14 01:09:58;;;;;;;11.00;6.60;;;;;;;14.32;69.86;101206.59;5049733;28;20041;-69
2021/03/14 01:12:26;;;;;;;13.90;8.50;;;;;;;14.24;70.33;101193.25;5050926;28;20119;-69
2021/03/14 01:14:53;;;;;;;17.88;8.68;;;;;;;14.20;70.68;101196.78;5051301;28;20120;-69
2021/03/14 01:17:20;;;;;;;10.98;6.43;;;;;;;14.14;71.26;101219.72;5052086;28;20098;-69
2021/03/14 01:19:47;;;;;;;11.05;6.25;;;;;;;14.10;71.78;101240.06;5051987;28;20083;-68
2021/03/14 01:22:15;;;;;;;16.17;8.73;;;;;;;14.08;72.21;101223.22;5066239;28;20124;-68
2021/03/14 01:24:42;;;;;;;14.52;8.88;;;;;;;14.06;72.51;101234.69;5051744;28;20029;-69
2021/03/14 01:27:09;;;;;;;14.18;8.73;;;;;;;14.05;72.61;101236.47;5051512;28;20119;-68
2021/03/14 01:29:36;;;;;;;17.35;10.15;;;;;;;14.07;72.72;101209.94;5051709;28;20037;-68
2021/03/14 01:32:03;;;;;;;24.00;11.10;;;;;;;14.10;72.50;101213.53;5051341;28;20124;-68
2021/03/14 01:34:31;;;;;;;15.70;8.65;;;;;;;14.11;72.36;101195.81;5051184;28;20098;-68
2021/03/14 01:36:58;;;;;;;28.35;13.80;;;;;;;14.12;72.15;101205.53;5049241;28;20140;-69
2021/03/14 01:39:26;;;;;;;15.48;8.25;;;;;;;14.14;72.22;101194.06;5066453;28;20582;-68
2021/03/14 01:41:53;;;;;;;18.98;10.02;;;;;;;14.18;72.27;101202.94;5050610;28;20651;-69
2021/03/14 01:44:21;;;;;;;14.52;8.02;;;;;;;14.13;72.40;101179.00;5051358;28;20041;-69
2021/03/14 01:46:48;;;;;;;15.73;7.57;;;;;;;14.10;72.79;101196.69;5066878;28;20044;-69
2021/03/14 01:49:15;;;;;;;13.48;8.00;;;;;;;14.08;72.80;101202.00;5050955;28;20045;-68
2021/03/14 01:51:43;;;;;;;19.85;11.95;;;;;;;14.12;73.12;101225.03;5051334;28;20106;-70
2021/03/14 01:54:11;;;;;;;13.57;8.48;;;;;;;14.10;73.27;101202.00;5050603;28;20057;-69
2021/03/14 01:56:40;;;;;;;17.40;9.73;;;;;;;14.10;73.60;101221.47;5050258;28;20033;-68
2021/03/14 01:59:07;;;;;;;17.95;9.95;;;;;;;14.06;73.96;101193.13;5050336;28;20064;-68
2021/03/14 02:01:35;;;;;;;16.60;8.85;;;;;;;14.07;74.28;101186.94;5050988;28;20045;-68
2021/03/14 02:04:02;;;;;;;26.48;14.50;;;;;;;14.07;74.52;101213.47;5050642;28;20037;-69
2021/03/14 02:06:28;;;;;;;24.48;12.90;;;;;;;14.05;74.75;101224.94;5051096;28;20549;-68
2021/03/14 02:08:55;;;;;;;36.08;20.13;;;;;;;14.01;75.02;101221.38;5050846;28;20132;-68
2021/03/14 02:11:26;;;;;;;24.70;12.65;;;;;;;14.02;74.94;101209.00;5050596;28;20699;-68
2021/03/14 02:13:58;;;;;;;17.65;9.48;;;;;;;14.03;74.88;101193.09;5050492;28;20151;-69
2021/03/14 02:16:31;;;;;;;13.77;8.35;;;;;;;14.03;75.36;101217.00;5051191;28;20048;-68
2021/03/14 02:19:01;;;;;;;17.02;10.40;;;;;;;13.99;75.53;101193.94;5049821;28;20041;-69
2021/03/14 02:21:33;;;;;;;23.10;12.60;;;;;;;14.00;75.88;101229.34;5051127;28;20057;-69
2021/03/14 02:24:04;;;;;;;23.05;12.13;;;;;;;13.98;76.29;101218.69;5049254;28;20049;-69
2021/03/14 02:26:35;;;;;;;21.67;10.43;;;;;;;13.98;76.22;101201.00;5049252;28;20573;-69
2021/03/14 02:29:05;;;;;;;17.55;9.38;;;;;;;14.03;76.11;101187.78;5050079;28;20041;-69
2021/03/14 02:31:32;;;;;;;12.73;7.90;;;;;;;14.04;75.95;101184.28;5050890;28;20052;-69
2021/03/14 02:34:06;;;;;;;17.75;9.05;;;;;;;14.06;75.85;101185.16;5049756;28;20569;-69
2021/03/14 02:36:35;;;;;;;32.65;15.15;;;;;;;14.06;75.79;101182.50;5050622;28;20080;-69
2021/03/14 02:39:05;;;;;;;19.83;9.68;;;;;;;14.07;75.91;101181.63;5049134;28;20128;-69
2021/03/14 02:41:33;;;;;;;12.77;7.35;;;;;;;14.07;75.99;101173.66;5050531;28;20070;-69
2021/03/14 02:44:01;;;;;;;20.30;11.95;;;;;;;14.01;76.21;101170.94;5049745;28;20037;-70
2021/03/14 02:46:30;;;;;;;15.73;8.10;;;;;;;14.03;76.21;101169.22;5050151;28;20070;-69
2021/03/14 02:48:59;;;;;;;11.70;5.97;;;;;;;14.08;76.21;101167.47;5049517;28;20056;-69
2021/03/14 02:51:26;;;;;;;11.57;7.47;;;;;;;14.10;75.97;101164.84;5050196;28;20507;-69
2021/03/14 02:53:54;;;;;;;16.27;8.88;;;;;;;14.11;75.87;101153.34;5049351;28;20037;-69
2021/03/14 02:56:22;;;;;;;16.00;8.52;;;;;;;14.11;75.75;101135.63;5048753;28;20124;-69
2021/03/14 02:58:50;;;;;;;18.75;7.65;;;;;;;14.14;75.60;101148.94;5050210;28;20035;-69
2021/03/14 03:01:18;;;;;;;16.42;8.30;;;;;;;14.13;75.61;101159.53;5041518;28;20044;-69
2021/03/14 03:03:46;;;;;;;12.50;6.90;;;;;;;14.11;75.71;101159.53;5049865;28;20073;-71
2021/03/14 03:06:14;;;;;;;14.68;8.65;;;;;;;14.12;75.66;101163.94;5049119;28;20067;-69
2021/03/14 03:08:41;;;;;;;15.23;8.98;;;;;;;14.14;75.65;101177.25;5049948;28;20179;-69
2021/03/14 03:11:12;;;;;;;15.40;6.90;;;;;;;14.12;75.68;101171.91;5049521;28;20051;-69
2021/03/14 03:13:39;;;;;;;19.48;11.05;;;;;;;14.09;75.72;101174.56;5049970;28;20051;-69
2021/03/14 03:16:11;;;;;;;10.60;6.60;;;;;;;14.10;75.61;101180.78;5048964;28;20037;-68
2021/03/14 03:18:40;;;;;;;17.42;8.23;;;;;;;14.07;75.61;101172.75;5049640;28;20041;-69
2021/03/14 03:21:10;;;;;;;18.27;8.60;;;;;;;14.01;75.81;101178.91;5049499;28;20039;-68
2021/03/14 03:23:38;;;;;;;16.13;9.05;;;;;;;13.98;75.87;101184.19;5050105;28;20620;-69
2021/03/14 03:26:06;;;;;;;26.63;12.45;;;;;;;14.00;75.77;101177.13;5048625;28;20041;-69
2021/03/14 03:28:34;;;;;;;23.55;11.88;;;;;;;14.03;75.52;101177.19;5049793;28;20048;-69
2021/03/14 03:31:02;;;;;;;17.75;10.35;;;;;;;14.04;75.38;101184.28;5049532;28;20057;-68
2021/03/14 03:33:29;;;;;;;20.45;12.07;;;;;;;14.02;75.32;101178.06;5050040;28;20033;-69
2021/03/14 03:35:56;;;;;;;16.20;9.45;;;;;;;14.01;75.36;101181.56;5048503;28;20037;-69
2021/03/14 03:38:25;;;;;;;35.53;14.18;;;;;;;14.03;75.40;101166.56;5049635;28;20041;-69
2021/03/14 03:40:54;;;;;;;15.60;8.82;;;;;;;14.03;75.35;101155.94;5048613;28;20047;-69
2021/03/14 03:43:26;;;;;;;16.48;9.57;;;;;;;14.07;75.30;101151.53;5049699;28;20437;-69
2021/03/14 03:45:56;;;;;;;19.63;8.98;;;;;;;14.07;75.26;101152.41;5049204;28;20041;-67
2021/03/14 03:48:29;;;;;;;10.57;6.47;;;;;;;14.07;75.17;101155.06;5049780;28;20110;-69
2021/03/14 03:50:59;;;;;;;11.57;6.50;;;;;;;14.08;75.10;101148.88;5048952;28;20402;-69
2021/03/14 03:53:28;;;;;;;17.50;8.73;;;;;;;14.06;75.07;101150.63;5049798;28;20124;-69
2021/03/14 03:55:56;;;;;;;17.00;7.28;;;;;;;14.01;75.44;101155.03;5048415;28;20090;-69
2021/03/14 03:58:25;;;;;;;14.85;8.13;;;;;;;13.98;75.38;101157.66;5051388;28;20040;-69
2021/03/14 04:00:53;;;;;;;12.82;7.40;;;;;;;13.95;75.39;101150.56;5052935;28;20437;-70
2021/03/14 04:03:21;;;;;;;13.02;7.05;;;;;;;13.91;75.41;101156.69;5053257;28;20490;-69
2021/03/14 04:05:49;;;;;;;13.15;6.65;;;;;;;13.87;75.55;101160.22;5053096;28;20060;-69
2021/03/14 04:08:18;;;;;;;10.65;5.72;;;;;;;13.87;75.52;101160.22;5017094;28;20044;-68
2021/03/14 04:10:47;;;;;;;11.57;6.95;;;;;;;13.87;75.53;101159.31;5046984;28;20599;-69
2021/03/14 04:13:16;;;;;;;10.02;6.30;;;;;;;13.81;75.52;101162.81;5052602;28;20108;-69
2021/03/14 04:15:43;;;;;;;9.77;6.55;;;;;;;13.73;75.67;101168.94;5053537;28;20041;-68
2021/03/14 04:18:12;;;;;;;12.07;6.68;;;;;;;13.74;75.95;101176.03;5052125;28;20048;-69
2021/03/14 04:20:41;;;;;;;16.23;7.28;;;;;;;13.74;75.93;101173.38;5052784;28;20041;-68
2021/03/14 04:23:12;;;;;;;27.77;12.95;;;;;;;13.72;75.84;101169.84;5052306;28;20402;-69
2021/03/14 04:25:40;;;;;;;23.00;9.50;;;;;;;13.76;75.77;101169.88;5052774;28;20044;-68
2021/03/14 04:28:09;;;;;;;14.90;6.72;;;;;;;13.80;75.56;101174.31;5052914;28;20043;-68
2021/03/14 04:30:36;;;;;;;14.90;5.75;;;;;;;13.80;75.31;101174.31;5052774;28;20045;-68
2021/03/14 04:33:04;;;;;;;12.20;7.40;;;;;;;13.83;75.15;101170.81;5052016;28;20068;-69
2021/03/14 04:35:32;;;;;;;15.07;6.28;;;;;;;13.82;75.09;101180.53;5051774;28;20136;-69
2021/03/14 04:38:00;;;;;;;17.67;8.68;;;;;;;13.84;75.01;101177.91;5052739;28;20154;-69
2021/03/14 04:40:28;;;;;;;12.85;6.60;;;;;;;13.86;74.86;101174.38;5052913;28;20033;-69
2021/03/14 04:42:57;;;;;;;12.00;7.60;;;;;;;13.90;74.79;101178.84;5051630;28;20051;-68
2021/03/14 04:45:26;;;;;;;10.25;5.85;;;;;;;13.96;74.74;101175.34;5051788;28;20073;-68
2021/03/14 04:47:54;;;;;;;19.63;7.47;;;;;;;13.98;74.75;101181.53;5051578;28;20490;-68
2021/03/14 04:50:23;;;;;;;14.52;7.53;;;;;;;14.01;74.61;101183.34;5052865;28;20098;-68
2021/03/14 04:52:53;;;;;;;11.45;6.50;;;;;;;14.02;74.56;101187.78;5052579;28;20521;-68
2021/03/14 04:55:22;;;;;;;13.30;6.30;;;;;;;14.05;74.55;101196.63;5052095;28;20041;-69
2021/03/14 04:57:50;;;;;;;11.27;6.82;;;;;;;14.05;74.54;101185.13;5052728;28;20067;-69
2021/03/14 05:00:19;;;;;;;13.10;8.45;;;;;;;14.05;74.60;101175.41;5051200;28;20410;-68
2021/03/14 05:02:51;;;;;;;14.65;7.75;;;;;;;14.03;74.75;101202.84;5051916;28;20091;-68
2021/03/14 05:05:19;;;;;;;10.07;6.78;;;;;;;14.01;74.97;101207.22;5052291;28;20045;-69
2021/03/14 05:07:48;;;;;;;13.82;9.23;;;;;;;14.02;74.87;101201.94;5052088;28;20053;-68
2021/03/14 05:10:18;;;;;;;22.02;15.30;;;;;;;14.09;74.79;101209.09;5050140;28;20484;-68
2021/03/14 05:12:46;;;;;;;17.00;11.68;;;;;;;14.16;74.64;101205.59;5052218;28;20076;-68
2021/03/14 05:15:15;;;;;;;17.42;12.43;;;;;;;14.24;74.70;101206.53;5050433;28;20041;-68
2021/03/14 05:17:45;;;;;;;14.15;9.10;;;;;;;14.30;74.61;101208.38;5052123;28;20394;-67
2021/03/14 05:20:15;;;;;;;14.75;6.80;;;;;;;14.35;74.64;101212.84;5051515;28;20119;-68
2021/03/14 05:22:43;;;;;;;9.73;5.18;;;;;;;14.44;74.58;101216.47;5051701;28;20497;-69
2021/03/14 05:25:13;;;;;;;11.05;7.05;;;;;;;14.48;74.48;101219.16;5047137;28;20039;-68
2021/03/14 05:27:42;;;;;;;14.73;8.05;;;;;;;14.54;74.58;101234.25;5051617;28;20049;-68
2021/03/14 05:30:10;;;;;;;11.38;6.78;;;;;;;14.58;74.58;101220.09;5051102;28;20166;-69
2021/03/14 05:32:38;;;;;;;9.20;6.00;;;;;;;14.61;74.59;101225.44;5052053;28;20440;-68
2021/03/14 05:35:06;;;;;;;11.52;5.75;;;;;;;14.54;74.69;101221.84;5050702;28;20052;-69
2021/03/14 05:37:34;;;;;;;9.70;5.30;;;;;;;14.47;75.16;101225.34;5050121;28;20517;-68
2021/03/14 05:40:01;;;;;;;10.25;6.13;;;;;;;14.51;75.29;101228.88;5051083;28;20497;-68
2021/03/14 05:42:29;;;;;;;11.40;5.53;;;;;;;14.52;75.30;101234.22;5051499;28;20049;-68
2021/03/14 05:44:57;;;;;;;10.35;5.15;;;;;;;14.57;75.52;101235.13;5051011;28;20049;-69
2021/03/14 05:47:24;;;;;;;8.90;5.30;;;;;;;14.64;75.31;101244.94;5051850;28;20540;-68
2021/03/14 05:49:52;;;;;;;11.13;5.60;;;;;;;14.74;75.37;101240.59;5051226;28;20045;-69
2021/03/14 05:52:20;;;;;;;10.48;6.13;;;;;;;14.79;75.30;101241.50;5050874;28;20041;-68
2021/03/14 05:54:51;;;;;;;18.38;9.95;;;;;;;14.83;75.26;101243.31;5051114;28;20112;-68
2021/03/14 05:57:19;;;;;;;22.85;17.10;;;;;;;14.85;75.21;101243.28;5037621;28;20044;-69
2021/03/14 05:59:51;;;;;;;16.73;10.80;;;;;;;14.87;75.20;101245.09;5031673;28;20061;-68
2021/03/14 06:02:19;;;;;;;20.80;11.55;;;;;;;14.87;75.36;101254.84;5030778;28;20092;-68
2021/03/14 06:04:48;;;;;;;15.18;9.50;;;;;;;14.95;75.42;101263.75;5030925;28;20438;-68
2021/03/14 06:07:15;;;;;;;15.10;9.35;;;;;;;15.01;75.45;101263.78;5030907;28;20517;-68
2021/03/14 06:09:43;;;;;;;28.75;17.20;;;;;;;15.10;75.38;101262.03;5031511;28;20562;-69
2021/03/14 06:12:12;;;;;;;55.47;29.70;;;;;;;15.27;75.23;101267.47;5030343;28;20041;-69
2021/03/14 06:14:40;;;;;;;54.08;29.17;;;;;;;15.41;75.14;101262.19;5030658;28;20133;-68
2021/03/14 06:17:08;;;;;;;38.42;19.77;;;;;;;15.55;74.83;101265.84;5030438;28;20038;-69
2021/03/14 06:19:35;;;;;;;42.80;25.48;;;;;;;15.64;74.57;101263.19;5030979;28;20045;-69
2021/03/14 06:22:26;;;;;;;40.00;25.70;;;;;;;15.79;74.44;101273.00;5028609;28;20589;-69
2021/03/14 06:24:54;;;;;;;21.98;10.63;;;;;;;15.86;74.56;101267.69;5048222;28;20040;-69
2021/03/14 06:27:51;;;;;;;12.93;7.85;;;;;;;16.00;74.76;101258.84;5044200;28;20533;-69
2021/03/14 06:30:20;;;;;;;18.13;13.00;;;;;;;16.07;74.92;101268.63;5047816;28;20435;-70
2021/03/14 06:33:01;;;;;;;21.63;10.65;;;;;;;16.14;74.78;101267.75;5049377;28;20472;-69
2021/03/14 06:35:40;;;;;;;26.83;14.18;;;;;;;16.14;74.66;101275.72;5048375;28;20041;-69
2021/03/14 06:38:22;;;;;;;30.85;16.98;;;;;;;16.19;74.37;101273.94;5079647;28;20076;-69
2021/03/14 06:40:51;;;;;;;28.38;17.20;;;;;;;16.25;74.29;101277.50;5038152;28;20051;-70
2021/03/14 06:43:20;;;;;;;30.33;18.58;;;;;;;16.30;73.99;101278.38;5048390;28;21776;-70
2021/03/14 06:45:47;;;;;;;49.30;29.85;;;;;;;16.33;73.78;101274.84;5042991;28;20097;-70
2021/03/14 06:48:24;;;;;;;81.97;48.53;;;;;;;16.42;73.45;101277.50;5029058;28;20034;-69
2021/03/14 06:50:52;;;;;;;51.67;29.50;;;;;;;16.43;73.25;101287.28;5043998;28;20497;-69
2021/03/14 06:53:21;;;;;;;34.00;21.83;;;;;;;16.48;72.86;101284.59;5049205;28;20049;-68
2021/03/14 06:55:51;;;;;;;26.73;17.33;;;;;;;16.53;72.80;101289.06;5042968;28;20044;-69
2021/03/14 06:58:26;;;;;;;26.08;14.15;;;;;;;16.55;72.92;101305.94;5044885;28;20064;-69
2021/03/14 07:01:11;;;;;;;24.65;14.93;;;;;;;16.57;73.05;101312.16;5043042;28;20051;-69
2021/03/14 07:03:40;;;;;;;23.20;12.95;;;;;;;16.53;73.23;101302.41;5048971;28;20565;-69
2021/03/14 07:06:19;;;;;;;35.13;17.50;;;;;;;16.59;73.23;101312.16;5043528;28;20099;-70
2021/03/14 07:08:47;;;;;;;29.50;19.38;;;;;;;16.60;73.22;101311.31;5048088;28;20052;-69
2021/03/14 07:11:33;;;;;;;27.33;18.90;;;;;;;16.67;73.36;101315.75;5049456;28;20138;-70
2021/03/14 07:14:03;;;;;;;23.45;15.50;;;;;;;16.73;73.35;101327.31;5049028;28;20041;-69
2021/03/14 07:16:47;;;;;;;25.17;16.92;;;;;;;16.82;73.24;101346.84;5043471;28;20137;-70
2021/03/14 07:19:16;;;;;;;83.80;44.00;;;;;;;16.87;73.21;101350.41;5049346;28;20036;-69
2021/03/14 07:21:43;;;;;;;36.55;22.85;;;;;;;16.98;73.30;101341.50;5038597;28;20071;-69
2021/03/14 07:24:13;;;;;;;25.58;14.13;;;;;;;17.19;73.20;101337.91;5034480;28;20040;-70
2021/03/14 07:26:46;;;;;;;20.45;13.30;;;;;;;17.34;72.52;101332.50;5030035;28;20042;-68
2021/03/14 07:29:14;;;;;;;20.58;13.63;;;;;;;17.39;72.13;101329.84;5029898;28;20049;-69
2021/03/14 07:31:42;;;;;;;19.83;11.45;;;;;;;17.44;71.72;101330.72;5042399;28;20045;-69
2021/03/14 07:34:09;;;;;;;15.95;9.93;;;;;;;17.53;71.13;101339.56;5037728;28;20045;-69
2021/03/14 07:36:36;;;;;;;64.82;39.28;;;;;;;17.57;70.18;101337.78;5032442;28;20037;-68
2021/03/14 07:39:05;;;;;;;64.78;43.28;;;;;;;17.59;69.38;101337.78;5049493;28;20455;-69
2021/03/14 07:41:33;;;;;;;44.50;29.90;;;;;;;17.54;68.81;101344.00;5044018;28;20172;-70
2021/03/14 07:44:03;;;;;;;30.05;20.98;;;;;;;17.55;68.42;101334.22;5044503;28;20049;-70
2021/03/14 07:46:32;;;;;;;27.42;16.90;;;;;;;17.58;67.44;101342.25;5049827;28;20047;-69
2021/03/14 07:49:02;;;;;;;19.83;11.43;;;;;;;17.66;66.87;101344.88;5064637;28;20138;-69
2021/03/14 07:51:30;;;;;;;17.08;9.90;;;;;;;17.78;66.13;101352.88;5046991;28;20041;-69
2021/03/14 07:54:05;;;;;;;20.05;12.75;;;;;;;17.92;65.58;101345.66;5038621;28;20033;-69
2021/03/14 07:56:36;;;;;;;21.50;14.65;;;;;;;17.93;65.26;101334.06;5047877;28;20136;-69
2021/03/14 07:59:03;;;;;;;20.98;12.10;;;;;;;17.95;65.64;101334.97;5047331;28;20087;-69
2021/03/14 08:01:34;;;;;;;19.30;10.40;;;;;;;17.99;65.47;101339.38;5048064;28;20621;-69
2021/03/14 08:04:02;;;;;;;17.75;10.90;;;;;;;18.04;65.55;101350.97;5047663;28;20501;-69
2021/03/14 08:06:50;;;;;;;18.73;10.35;;;;;;;18.17;65.61;101355.34;5047629;28;20064;-70
2021/03/14 08:09:48;;;;;;;18.83;10.93;;;;;;;18.33;65.29;101357.00;5031751;28;20044;-69
2021/03/14 08:12:34;;;;;;;18.73;11.15;;;;;;;18.55;65.13;101354.19;4986834;28;20141;-69
2021/03/14 08:15:01;;;;;;;15.35;9.82;;;;;;;18.75;64.53;101359.41;5034745;28;20033;-69
2021/03/14 08:17:37;;;;;;;18.48;9.60;;;;;;;19.01;63.54;101360.94;5039558;28;20034;-69
2021/03/14 08:20:06;;;;;;;17.30;9.82;;;;;;;19.17;63.05;101366.13;5034364;28;20041;-69
2021/03/14 08:22:47;;;;;;;20.13;11.65;;;;;;;19.27;62.10;101366.03;5033146;28;20049;-69
2021/03/14 08:25:19;;;;;;;16.63;11.18;;;;;;;19.42;62.20;101367.69;5033569;28;20038;-69
2021/03/14 08:27:47;;;;;;;17.83;12.50;;;;;;;19.74;62.08;101372.69;5032300;28;20124;-70
2021/03/14 08:30:44;;;;;;;24.02;12.65;;;;;;;20.14;61.44;101368.59;5033692;28;20124;-70
2021/03/14 08:33:25;;;;;;;22.88;13.07;;;;;;;20.42;60.70;101352.09;5027327;28;20056;-69
2021/03/14 08:35:54;;;;;;;16.25;8.68;;;;;;;20.59;60.20;101345.59;5029091;28;20047;-70
2021/03/14 08:38:26;;;;;;;10.45;5.53;;;;;;;20.84;59.33;101351.41;5031543;28;20108;-72
2021/03/14 08:41:24;;;;;;;8.77;5.50;;;;;;;20.90;58.27;101354.00;5029422;28;20128;-70
2021/03/14 08:43:53;;;;;;;7.47;4.32;;;;;;;20.90;58.35;101351.31;5031371;28;20341;-69
2021/03/14 08:46:21;;;;;;;8.52;4.38;;;;;;;20.94;57.82;101346.75;5034046;28;20072;-69
2021/03/14 08:48:49;;;;;;;9.07;4.40;;;;;;;21.16;57.46;101356.25;5049353;28;20120;-70
2021/03/14 08:51:16;;;;;;;11.38;4.63;;;;;;;21.31;57.06;101353.28;5048023;28;20049;-71
2021/03/14 08:53:44;;;;;;;13.63;4.10;;;;;;;21.35;56.49;101336.19;5036486;28;20037;-71
2021/03/14 08:56:11;;;;;;;9.75;4.07;;;;;;;21.57;56.06;101344.72;5032177;28;20056;-71
2021/03/14 08:58:38;;;;;;;11.48;3.90;;;;;;;21.85;55.64;101345.91;5030214;28;20430;-71
2021/03/14 09:01:06;;;;;;;10.05;4.68;;;;;;;21.95;54.76;101343.00;5032507;28;20128;-71
2021/03/14 09:03:40;;;;;;;11.15;4.72;;;;;;;22.09;53.94;101336.44;5039328;28;20045;-70
2021/03/14 09:06:28;;;;;;;29.55;14.95;;;;;;;22.18;53.50;101346.13;5040925;28;20045;-71
2021/03/14 09:09:00;;;;;;;22.38;11.32;;;;;;;21.99;53.82;101344.75;5034177;28;20071;-71
2021/03/14 09:11:45;;;;;;;19.75;9.85;;;;;;;21.84;52.80;101332.50;5032620;28;20129;-71
2021/03/14 09:14:27;;;;;;;45.35;24.65;;;;;;;21.84;52.88;101321.75;5050065;28;24598;-71
2021/03/14 09:16:57;;;;;;;16.90;7.60;;;;;;;21.69;53.59;101311.31;5050086;28;20079;-70
2021/03/14 09:19:25;;;;;;;10.43;4.70;;;;;;;21.67;53.20;101308.66;5045081;28;20037;-70
2021/03/14 09:21:56;;;;;;;34.33;19.05;;;;;;;21.38;53.29;101313.75;5044726;28;20034;-71
2021/03/14 09:24:27;;;;;;;113.18;61.83;;;;;;;21.03;53.75;101303.66;5032557;28;20052;-71
2021/03/14 09:26:56;;;;;;;122.82;70.85;;;;;;;20.74;54.04;101301.50;5040201;28;20033;-71
2021/03/14 09:29:40;;;;;;;24.50;12.38;;;;;;;20.73;54.49;101304.22;5044497;28;20035;-71
2021/03/14 09:32:28;;;;;;;40.20;23.10;;;;;;;20.61;54.25;101284.72;5048490;28;20041;-71
2021/03/14 09:35:17;;;;;;;34.83;18.40;;;;;;;20.63;54.55;101304.34;5050977;28;20132;-71
2021/03/14 09:37:46;;;;;;;56.72;26.27;;;;;;;20.72;54.38;101294.38;5039138;28;20036;-71
2021/03/14 09:40:17;;;;;;;48.45;23.17;;;;;;;20.98;54.39;101293.00;5042913;28;20128;-71
2021/03/14 09:42:45;;;;;;;30.02;13.05;;;;;;;21.19;54.05;101298.91;5046494;28;20072;-71
2021/03/14 09:45:14;;;;;;;25.60;12.25;;;;;;;21.41;53.82;101292.19;5050914;28;21574;-72
2021/03/14 09:48:02;;;;;;;27.80;11.75;;;;;;;21.52;53.19;101294.66;5037114;28;20037;-71
2021/03/14 09:50:30;;;;;;;23.70;12.10;;;;;;;21.48;53.55;101304.56;5031569;28;20478;-71
2021/03/14 09:53:01;;;;;;;23.77;11.73;;;;;;;21.60;52.99;101292.69;5035892;28;20064;-71
2021/03/14 09:55:31;;;;;;;19.27;9.25;;;;;;;21.56;53.12;101274.88;5049317;28;20127;-71
2021/03/14 09:57:59;;;;;;;16.70;8.00;;;;;;;21.06;53.38;101282.13;5036245;28;20429;-70
2021/03/14 10:00:28;;;;;;;28.60;13.52;;;;;;;20.71;53.68;101289.94;5031244;28;20490;-70
2021/03/14 10:02:58;;;;;;;72.20;39.88;;;;;;;20.34;54.21;101295.94;5034309;28;20428;-71
2021/03/14 10:05:27;;;;;;;26.77;14.30;;;;;;;20.22;54.45;101294.25;5036540;28;20029;-71
2021/03/14 10:07:55;;;;;;;31.95;17.88;;;;;;;20.07;54.62;101280.22;5042755;28;20486;-71
2021/03/14 10:10:23;;;;;;;13.50;6.03;;;;;;;19.92;54.54;101270.59;5041401;28;20033;-70
2021/03/14 10:12:51;;;;;;;12.32;5.55;;;;;;;19.78;54.88;101260.09;5038367;28;20046;-71
2021/03/14 10:15:19;;;;;;;20.33;10.85;;;;;;;19.72;55.21;101262.84;5041517;28;20669;-71
2021/03/14 10:17:47;;;;;;;15.25;7.25;;;;;;;19.48;55.63;101264.09;5049234;28;20045;-71
2021/03/14 10:20:15;;;;;;;11.30;4.65;;;;;;;19.43;56.01;101262.31;5048053;28;20050;-70
2021/03/14 10:22:42;;;;;;;15.10;6.30;;;;;;;19.31;56.91;101265.13;5036716;28;20041;-70
2021/03/14 10:25:25;;;;;;;10.30;5.47;;;;;;;19.33;57.10;101266.03;5045035;28;20037;-70
2021/03/14 10:27:52;;;;;;;13.93;5.25;;;;;;;19.18;57.34;101269.75;5030588;28;20077;-70
2021/03/14 10:30:20;;;;;;;14.18;6.13;;;;;;;19.03;57.72;101259.25;5036313;28;20052;-71
2021/03/14 10:33:02;;;;;;;13.30;6.45;;;;;;;18.96;57.78;101245.03;5049050;28;20080;-70
2021/03/14 10:35:29;;;;;;;16.02;9.63;;;;;;;18.97;57.94;101240.59;5039467;28;20553;-71
2021/03/14 10:37:56;;;;;;;13.07;6.75;;;;;;;19.03;58.15;101230.66;5034049;28;20037;-71
2021/03/14 10:40:26;;;;;;;20.08;10.10;;;;;;;19.02;58.18;101214.66;5050547;28;20737;-71
2021/03/14 10:42:53;;;;;;;21.52;12.13;;;;;;;18.99;58.48;101210.22;5035430;28;20039;-70
2021/03/14 10:45:23;;;;;;;27.92;15.85;;;;;;;18.96;58.61;101206.69;5031119;28;20421;-69
2021/03/14 10:48:01;;;;;;;28.85;15.60;;;;;;;18.85;58.85;101216.59;5033183;28;20033;-70
2021/03/14 10:50:31;;;;;;;20.80;11.07;;;;;;;18.91;58.98;101216.53;5036588;28;20422;-71
2021/03/14 10:53:09;;;;;;;18.40;9.85;;;;;;;19.10;58.95;101224.34;5047269;28;20090;-71
2021/03/14 10:55:39;;;;;;;23.17;12.07;;;;;;;19.26;58.89;101224.16;5043621;28;20132;-71
2021/03/14 10:58:11;;;;;;;29.05;12.82;;;;;;;19.55;58.56;101240.78;5044859;28;20045;-72
2021/03/14 11:00:42;;;;;;;22.52;11.05;;;;;;;19.82;58.06;101234.16;5037793;28;20493;-71
2021/03/14 11:03:23;;;;;;;14.70;9.07;;;;;;;20.07;57.45;101248.94;5048374;28;20413;-71
2021/03/14 11:05:50;;;;;;;17.88;9.93;;;;;;;20.34;57.01;101236.94;5049932;28;20477;-71
2021/03/14 11:08:17;;;;;;;17.45;10.15;;;;;;;20.64;56.14;101225.63;5047842;28;20186;-72
2021/03/14 11:10:55;;;;;;;17.25;8.82;;;;;;;21.00;55.44;101212.44;5048023;28;20128;-71
2021/03/14 11:13:22;;;;;;;17.25;7.45;;;;;;;21.15;54.93;101204.06;5046733;28;20124;-72
2021/03/14 11:15:49;;;;;;;15.52;6.85;;;;;;;21.27;54.20;101197.56;5042420;28;20048;-72
2021/03/14 11:18:21;;;;;;;21.55;9.80;;;;;;;21.52;53.89;101184.50;5048744;28;20060;-71
2021/03/14 11:20:49;;;;;;;12.70;7.28;;;;;;;21.73;53.86;101192.94;5032600;28;20046;-71
2021/03/14 11:23:16;;;;;;;14.02;6.15;;;;;;;21.83;53.30;101182.88;5043264;28;20047;-71
2021/03/14 11:25:43;;;;;;;14.77;7.70;;;;;;;21.90;52.38;101171.03;5046818;28;20047;-70
2021/03/14 11:28:10;;;;;;;14.20;7.28;;;;;;;21.98;52.47;101171.78;5041143;28;20065;-70